createdAt,value
2023-01-26T05:33:03.196Z,28.00
2023-01-26T05:35:50.342Z,26.50
2023-01-26T05:38:26.804Z,28.27
2023-01-26T05:43:51.289Z,26.10
2023-01-26T05:49:00.261Z,26.40
2023-01-26T05:51:36.172Z,27.58
2023-01-26T05:54:12.215Z,26.65
2023-01-26T05:56:39.412Z,25.98
2023-01-26T05:59:22.156Z,24.38
2023-01-26T06:01:58.751Z,25.47
2023-01-26T06:04:26.316Z,25.15
2023-01-26T06:06:56.589Z,25.95
2023-01-26T06:09:26.416Z,23.73
2023-01-26T06:12:02.923Z,22.90
2023-01-26T06:14:30.306Z,24.25
2023-01-26T06:16:57.767Z,22.35
2023-01-26T06:19:25.018Z,24.48
2023-01-26T06:22:02.927Z,23.45
2023-01-26T06:24:31.390Z,24.88
2023-01-26T06:27:08.496Z,23.50
2023-01-26T06:29:43.575Z,22.95
2023-01-26T06:32:18.377Z,22.00
2023-01-26T06:34:53.779Z,21.02
2023-01-26T06:37:27.293Z,22.10
2023-01-26T06:40:46.894Z,22.25
2023-01-26T06:43:18.112Z,18.52
2023-01-26T06:45:59.933Z,20.58
2023-01-26T06:48:49.500Z,20.80
2023-01-26T06:51:42.758Z,21.35
2023-01-26T06:54:18.889Z,20.70
2023-01-26T06:56:54.176Z,21.70
2023-01-26T06:59:32.441Z,22.67
2023-01-26T07:02:16.690Z,20.85
2023-01-26T07:07:49.654Z,20.65
2023-01-26T07:10:27.207Z,20.83
2023-01-26T07:13:06.288Z,19.38
2023-01-26T07:15:43.010Z,22.10
2023-01-26T07:23:59.525Z,22.58
2023-01-26T07:26:57.464Z,20.67
2023-01-26T07:29:32.919Z,19.55
2023-01-26T07:32:08.926Z,19.00
2023-01-26T07:34:50.418Z,21.77
2023-01-26T07:37:25.255Z,20.67
2023-01-26T07:40:07.464Z,22.20
2023-01-26T07:42:47.080Z,21.55
2023-01-26T07:45:35.510Z,20.58
2023-01-26T07:48:31.710Z,20.70
2023-01-26T07:51:11.443Z,21.20
2023-01-26T08:00:42.979Z,24.25
2023-01-26T08:03:24.629Z,23.15
2023-01-26T08:08:41.368Z,22.48
2023-01-26T08:11:19.457Z,22.55
2023-01-26T08:14:03.657Z,20.52
2023-01-26T08:16:39.548Z,23.30
2023-01-26T08:19:34.370Z,26.13
2023-01-26T08:22:13.716Z,23.05
2023-01-26T08:25:17.540Z,24.40
2023-01-26T08:27:59.451Z,26.83
2023-01-26T08:31:00.421Z,24.65
2023-01-26T08:36:44.594Z,21.80
2023-01-26T08:44:59.638Z,21.75
2023-01-26T08:54:33.987Z,21.60
2023-01-26T09:00:20.573Z,23.15
2023-01-26T09:05:47.288Z,21.90
2023-01-26T09:08:23.552Z,24.08
2023-01-26T09:11:24.502Z,24.58
2023-01-26T09:14:00.936Z,26.98
2023-01-26T09:16:38.599Z,24.60
2023-01-26T09:19:14.528Z,27.17
2023-01-26T09:21:53.835Z,26.52
2023-01-26T09:24:31.605Z,25.80
2023-01-26T09:27:07.572Z,24.95
2023-01-26T09:30:07.349Z,25.52
2023-01-26T09:32:42.287Z,23.15
2023-01-26T09:35:27.938Z,24.17
2023-01-26T09:38:02.326Z,27.75
2023-01-26T09:47:22.613Z,22.00
2023-01-26T09:53:17.103Z,20.63
2023-01-26T09:58:32.918Z,21.08
2023-01-26T10:01:06.331Z,20.27
2023-01-26T10:03:45.682Z,20.42
2023-01-26T10:06:14.295Z,21.02
2023-01-26T10:08:54.808Z,20.00
2023-01-26T10:14:14.979Z,19.40
2023-01-26T10:16:54.110Z,19.88
2023-01-26T10:22:42.472Z,20.60
2023-01-26T10:25:19.106Z,18.65
2023-01-26T10:31:01.180Z,18.38
2023-01-26T10:36:35.414Z,15.10
2023-01-26T10:39:10.642Z,14.95
2023-01-26T10:41:59.768Z,13.47
2023-01-26T10:44:36.961Z,13.40
2023-01-26T10:47:21.561Z,12.90
2023-01-26T10:50:24.928Z,13.33
2023-01-26T10:53:05.699Z,13.88
2023-01-26T10:55:43.474Z,13.68
2023-01-26T11:01:13.354Z,15.10
2023-01-26T11:10:26.276Z,11.95
2023-01-26T11:16:05.083Z,11.90
2023-01-26T11:22:07.542Z,13.10
2023-01-26T11:24:46.079Z,12.18
2023-01-26T11:30:23.790Z,12.63
2023-01-26T11:32:52.279Z,13.27
2023-01-26T11:35:28.463Z,12.65
2023-01-26T11:38:13.567Z,12.48
2023-01-26T11:41:51.323Z,11.85
2023-01-26T11:45:01.028Z,11.50
2023-01-26T11:47:41.391Z,11.85
2023-01-26T11:50:23.900Z,11.77
2023-01-26T11:53:26.515Z,13.52
2023-01-26T11:56:01.378Z,13.45
2023-01-26T11:58:39.945Z,12.93
2023-01-26T12:01:20.105Z,11.27
2023-01-26T12:03:57.187Z,11.67
2023-01-26T12:09:33.802Z,12.70
2023-01-26T12:12:31.769Z,12.25
2023-01-26T12:15:17.293Z,11.73
2023-01-26T12:17:51.609Z,11.55
2023-01-26T12:20:35.837Z,11.10
2023-01-26T12:23:33.578Z,10.65
2023-01-26T12:26:13.565Z,12.43
2023-01-26T12:28:47.691Z,12.43
2023-01-26T12:31:20.570Z,10.77
2023-01-26T12:36:29.543Z,12.48
2023-01-26T12:39:22.598Z,10.80
2023-01-26T12:42:22.535Z,11.50
2023-01-26T12:45:00.501Z,11.75
2023-01-26T12:47:45.992Z,12.23
2023-01-26T12:50:29.725Z,12.57
2023-01-26T12:53:46.260Z,14.70
2023-01-26T12:58:59.428Z,13.98
2023-01-26T13:01:28.391Z,13.07
2023-01-26T13:04:04.404Z,13.85
2023-01-26T13:06:39.629Z,12.50
2023-01-26T13:09:06.779Z,11.05
2023-01-26T13:11:59.187Z,10.50
2023-01-26T13:14:58.717Z,9.73
2023-01-26T13:18:03.415Z,10.70
2023-01-26T13:23:42.092Z,8.02
2023-01-26T13:26:19.580Z,8.95
2023-01-26T13:29:21.176Z,8.40
2023-01-26T13:31:59.059Z,7.63
2023-01-26T13:34:32.064Z,7.82
2023-01-26T13:37:08.242Z,8.35
2023-01-26T13:39:39.117Z,6.90
